Time;durP1;ratioP1;P1;durP2;ratioP2;P2;SDS_P1;SDS_P2;PMS_P1;PMS_P2;Temp;Humidity;BMP_temperature;BMP_pressure;BME280_temperature;BME280_humidity;BME280_pressure;Samples;Min_cycle;Max_cycle;Signal;HPM_P1;HPM_P2
2022/12/02 00:00:56;;;;;;;;;;;;;;;-144.99;92.06;52664.16;5036540;28;19963;-73
2022/12/02 00:03:24;;;;;;;;;;;;;;;-144.99;92.12;52643.78;5059738;28;19942;-73
2022/12/02 00:05:53;;;;;;;;;;;;;;;-144.99;92.05;52668.22;5050872;28;19985;-73
2022/12/02 00:08:21;;;;;;;;;;;;;;;-144.99;92.20;52651.94;5043030;28;19959;-72
2022/12/02 00:10:48;;;;;;;;;;;;;;;-144.99;92.23;52696.78;5044577;28;20334;-73
2022/12/02 00:13:19;;;;;;;;;;;;;;;-144.99;92.32;52629.50;5034479;28;19940;-73
2022/12/02 00:15:47;;;;;;;;;;;;;;;-144.99;92.53;52692.69;5029601;28;19938;-71
2022/12/02 00:18:15;;;;;;;;;;;;;;;-144.99;92.57;52643.78;5040165;28;19959;-70
2022/12/02 00:20:43;;;;;;;;;;;;;;;-144.99;92.71;52664.16;5029965;28;19967;-71
2022/12/02 00:23:09;;;;;;;;;;;;;;;-144.99;92.79;52623.38;5033877;28;19987;-71
2022/12/02 00:25:36;;;;;;;;;;;;;;;-144.99;92.77;52676.38;5014850;28;20020;-71
2022/12/02 00:28:03;;;;;;;;;;;;;;;-144.99;93.07;52704.94;5027284;28;19936;-72
2022/12/02 00:30:30;;;;;;;;;;;;;;;-144.99;92.84;52692.69;5057210;28;19935;-72
2022/12/02 00:32:56;;;;;;;;;;;;;;;-144.99;94.34;52680.47;5056517;28;19933;-71
2022/12/02 00:35:24;;;;;;;;;;;;;;;-144.99;95.16;52686.59;5056030;28;19949;-70
2022/12/02 00:37:51;;;;;;;;;;;;;;;-144.99;95.02;52670.28;5047338;28;19976;-74
2022/12/02 00:40:17;;;;;;;;;;;;;;;-144.99;95.07;52692.69;5041819;28;20382;-74
2022/12/02 00:42:44;;;;;;;;;;;;;;;-144.99;94.86;52684.53;5033244;28;19925;-73
2022/12/02 00:47:55;;;;;;;;;;;;;;;-144.99;94.46;52651.94;5031554;28;20005;-74
2022/12/02 00:50:22;;;;;;;;;;;;;;;-144.99;94.44;52682.50;5036022;28;20011;-74
2022/12/02 00:52:50;;;;;;;;;;;;;;;-144.99;94.38;52651.94;5033746;28;19929;-75
2022/12/02 00:55:16;;;;;;;;;;;;;;;-144.99;94.85;52656.00;5024524;28;20425;-73
2022/12/02 00:57:43;;;;;;;;;;;;;;;-144.99;95.15;52700.84;5033631;28;19989;-75
2022/12/02 01:00:11;;;;;;;;;;;;;;;-144.99;94.47;52672.31;5034928;28;19942;-74
2022/12/02 01:02:37;;;;;;;;;;;;;;;-144.99;94.21;52660.09;5033154;28;20139;-70
2022/12/02 01:05:04;;;;;;;;;;;;;;;-144.99;93.73;52709.00;5033237;28;19988;-70
2022/12/02 01:07:31;;;;;;;;;;;;;;;-144.99;93.94;52653.97;5033309;28;20426;-70
2022/12/02 01:09:59;;;;;;;;;;;;;;;-144.99;93.38;52704.94;5026990;28;20019;-70
2022/12/02 01:12:25;;;;;;;;;;;;;;;-144.99;93.32;52692.69;5032753;28;20433;-70
2022/12/02 01:14:52;;;;;;;;;;;;;;;-144.99;93.10;52666.19;5030151;28;20043;-70
2022/12/02 01:17:18;;;;;;;;;;;;;;;-144.99;93.01;52664.16;5030927;28;19951;-69
2022/12/02 01:19:45;;;;;;;;;;;;;;;-144.99;92.97;52668.22;5038489;28;19925;-69
2022/12/02 01:22:11;;;;;;;;;;;;;;;-144.99;93.01;52680.47;5035408;28;19971;-70
2022/12/02 01:24:38;;;;;;;;;;;;;;;-144.99;93.26;52680.47;5033224;28;20363;-70
2022/12/02 01:27:06;;;;;;;;;;;;;;;-144.99;93.19;52660.09;5033082;28;20382;-70
2022/12/02 01:29:32;;;;;;;;;;;;;;;-144.99;93.48;52680.47;5034346;28;19999;-70
2022/12/02 01:31:59;;;;;;;;;;;;;;;-144.99;93.59;52664.16;5035813;28;19960;-71
2022/12/02 01:34:25;;;;;;;;;;;;;;;-144.99;93.54;52688.63;5033446;28;20315;-71
2022/12/02 01:36:52;;;;;;;;;;;;;;;-144.99;93.63;52709.00;5027669;28;19974;-71
2022/12/02 01:39:18;;;;;;;;;;;;;;;-144.99;93.68;52660.09;5031322;28;19948;-71
2022/12/02 01:41:45;;;;;;;;;;;;;;;-144.99;93.88;52651.94;5033441;28;20387;-72
2022/12/02 01:44:13;;;;;;;;;;;;;;;-144.99;93.65;52684.53;5032558;28;19967;-72
2022/12/02 01:46:41;;;;;;;;;;;;;;;-144.99;93.57;52688.63;5039618;28;19955;-71
2022/12/02 01:49:07;;;;;;;;;;;;;;;-144.99;93.48;52688.63;5036227;28;19964;-71
2022/12/02 01:51:34;;;;;;;;;;;;;;;-144.99;93.91;52680.47;5038026;28;19933;-70
2022/12/02 01:54:01;;;;;;;;;;;;;;;-144.99;94.08;52647.84;5032477;28;20406;-71
2022/12/02 01:56:28;;;;;;;;;;;;;;;-144.99;94.00;52704.94;5031982;28;19970;-71
2022/12/02 01:58:54;;;;;;;;;;;;;;;-144.99;93.87;52676.38;5032213;28;19949;-70
2022/12/02 02:01:23;;;;;;;;;;;;;;;-144.99;94.23;52692.69;5030950;28;19965;-71
2022/12/02 02:03:50;;;;;;;;;;;;;;;-144.99;94.12;52719.19;5030156;28;19945;-71
2022/12/02 02:06:17;;;;;;;;;;;;;;;-144.99;94.76;52676.38;5031817;28;20384;-71
2022/12/02 02:08:43;;;;;;;;;;;;;;;-144.99;94.41;52676.38;5025639;28;19963;-73
2022/12/02 02:11:10;;;;;;;;;;;;;;;-144.99;94.78;52674.34;5025916;28;20023;-70
2022/12/02 02:13:36;;;;;;;;;;;;;;;-144.99;95.62;52696.78;5028115;28;19945;-70
2022/12/02 02:16:03;;;;;;;;;;;;;;;-144.99;96.45;52676.38;5027335;28;19951;-69
2022/12/02 02:18:31;;;;;;;;;;;;;;;-144.99;95.91;52713.09;5031902;28;19982;-70
2022/12/02 02:20:59;;;;;;;;;;;;;;;-144.99;95.80;52668.22;5029786;28;19956;-70
2022/12/02 02:23:27;;;;;;;;;;;;;;;-144.99;95.86;52690.66;5031669;28;20315;-69
2022/12/02 02:25:55;;;;;;;;;;;;;;;-144.99;96.12;52651.94;5031609;28;20338;-70
2022/12/02 02:28:23;;;;;;;;;;;;;;;-144.99;95.94;52713.09;5031581;28;19948;-70
2022/12/02 02:30:50;;;;;;;;;;;;;;;-144.99;95.84;52692.69;5030381;28;20027;-69
2022/12/02 02:33:16;;;;;;;;;;;;;;;-144.99;95.98;52688.63;5030494;28;20360;-70
2022/12/02 02:35:44;;;;;;;;;;;;;;;-144.99;95.81;52692.69;5030370;28;20400;-70
2022/12/02 02:38:12;;;;;;;;;;;;;;;-144.99;96.07;52682.50;5026293;28;19954;-69
2022/12/02 02:40:41;;;;;;;;;;;;;;;-144.99;96.15;52668.22;5031944;28;19929;-73
2022/12/02 02:43:08;;;;;;;;;;;;;;;-144.99;96.07;52688.63;5030546;28;20006;-72
2022/12/02 02:45:36;;;;;;;;;;;;;;;-144.99;96.21;52692.69;5032568;28;19997;-74
2022/12/02 02:48:03;;;;;;;;;;;;;;;-144.99;96.15;52668.22;5033615;28;19947;-73
2022/12/02 02:50:30;;;;;;;;;;;;;;;-144.99;96.12;52715.13;5022995;28;19970;-73
2022/12/02 02:52:57;;;;;;;;;;;;;;;-144.99;96.10;52684.53;5026771;28;19956;-73
2022/12/02 02:55:25;;;;;;;;;;;;;;;-144.99;96.69;52717.16;5024237;28;20078;-73
2022/12/02 02:57:56;;;;;;;;;;;;;;;-144.99;96.97;52688.63;5031575;28;19942;-73
2022/12/02 03:00:23;;;;;;;;;;;;;;;-144.99;97.34;52668.22;5031233;28;19945;-73
2022/12/02 03:02:52;;;;;;;;;;;;;;;-144.99;98.14;52680.47;5030933;28;19925;-73
2022/12/02 03:05:19;;;;;;;;;;;;;;;-144.99;98.96;52696.78;5031604;28;19945;-69
2022/12/02 03:07:46;;;;;;;;;;;;;;;-144.99;99.23;52688.63;5025586;28;20047;-69
2022/12/02 03:10:13;;;;;;;;;;;;;;;-144.99;99.52;52688.63;5023839;28;20017;-68
2022/12/02 03:12:40;;;;;;;;;;;;;;;-144.99;100.00;52680.47;5031597;28;20603;-68
2022/12/02 03:15:09;;;;;;;;;;;;;;;-144.99;100.00;52688.63;5033657;28;20030;-68
2022/12/02 03:17:36;;;;;;;;;;;;;;;-144.99;100.00;52711.03;5033429;28;19987;-68
2022/12/02 03:20:03;;;;;;;;;;;;;;;-144.99;100.00;52692.69;5031323;28;19957;-68
2022/12/02 03:22:30;;;;;;;;;;;;;;;-144.99;100.00;52668.22;5017821;28;19959;-68
2022/12/02 03:24:57;;;;;;;;;;;;;;;-144.99;100.00;52639.69;5032563;28;19963;-68
2022/12/02 03:27:23;;;;;;;;;;;;;;;-144.99;100.00;52676.38;5032401;28;20456;-69
2022/12/02 03:29:51;;;;;;;;;;;;;;;-144.99;100.00;52668.22;5035512;28;20327;-68
2022/12/02 03:32:19;;;;;;;;;;;;;;;-144.99;100.00;52643.78;5032770;28;20035;-68
2022/12/02 03:34:46;;;;;;;;;;;;;;;-144.99;100.00;52684.53;5036522;28;20166;-75
2022/12/02 03:37:12;;;;;;;;;;;;;;;-144.99;100.00;52651.94;5036316;28;19943;-72
2022/12/02 03:39:39;;;;;;;;;;;;;;;-144.99;100.00;52692.69;5037028;28;19963;-73
2022/12/02 03:42:06;;;;;;;;;;;;;;;-144.99;100.00;52684.53;5032178;28;19929;-74
2022/12/02 03:44:33;;;;;;;;;;;;;;;-144.99;100.00;52680.47;5030056;28;19936;-74
2022/12/02 03:47:00;;;;;;;;;;;;;;;-144.99;100.00;52715.13;5035643;28;19925;-69
2022/12/02 03:49:29;;;;;;;;;;;;;;;-144.99;100.00;52688.63;5036412;28;19952;-71
2022/12/02 03:51:56;;;;;;;;;;;;;;;-144.99;100.00;52645.81;5035501;28;19962;-71
2022/12/02 03:54:23;;;;;;;;;;;;;;;-144.99;100.00;52680.47;5035550;28;20020;-71
2022/12/02 03:56:50;;;;;;;;;;;;;;;-144.99;100.00;52651.94;5035309;28;19951;-72
2022/12/02 03:59:19;;;;;;;;;;;;;;;-144.99;100.00;52725.31;5035916;28;19925;-73
2022/12/02 04:01:46;;;;;;;;;;;;;;;-144.99;100.00;52649.88;5034334;28;19956;-73
2022/12/02 04:04:12;;;;;;;;;;;;;;;-144.99;100.00;52696.78;5034874;28;19998;-73
2022/12/02 04:06:41;;;;;;;;;;;;;;;-144.99;100.00;52692.69;5034273;28;20025;-73
2022/12/02 04:09:07;;;;;;;;;;;;;;;-144.99;100.00;52696.78;5037292;28;19968;-73
2022/12/02 04:11:34;;;;;;;;;;;;;;;-144.99;100.00;52641.72;5034013;28;20003;-73
2022/12/02 04:14:00;;;;;;;;;;;;;;;-144.99;100.00;52700.84;5034319;28;19969;-74
2022/12/02 04:16:27;;;;;;;;;;;;;;;-144.99;100.00;52664.16;5030092;28;19990;-75
2022/12/02 04:18:54;;;;;;;;;;;;;;;-144.99;100.00;52672.31;5036212;28;19941;-75
2022/12/02 04:21:23;;;;;;;;;;;;;;;-144.99;100.00;52721.22;5034900;28;19961;-73
2022/12/02 04:23:52;;;;;;;;;;;;;;;-144.99;100.00;52688.63;5030168;28;19951;-72
2022/12/02 04:26:18;;;;;;;;;;;;;;;-144.99;100.00;52725.31;5014674;28;20036;-72
2022/12/02 04:28:45;;;;;;;;;;;;;;;-144.99;100.00;52651.94;5022258;28;20297;-74
2022/12/02 04:31:11;;;;;;;;;;;;;;;-144.99;100.00;52694.72;5035679;28;19929;-71
2022/12/02 04:33:38;;;;;;;;;;;;;;;-144.99;100.00;52660.09;5049258;28;19949;-72
2022/12/02 04:36:05;;;;;;;;;;;;;;;-144.99;100.00;52696.78;5037284;28;19944;-72
2022/12/02 04:38:32;;;;;;;;;;;;;;;-144.99;100.00;52672.31;5052201;28;19944;-73
2022/12/02 04:40:59;;;;;;;;;;;;;;;-144.99;100.00;52684.53;5056476;28;19979;-72
2022/12/02 04:43:26;;;;;;;;;;;;;;;-144.99;100.00;52696.78;5052677;28;19941;-72
2022/12/02 04:45:53;;;;;;;;;;;;;;;-144.99;100.00;52692.69;5054120;28;20000;-74
2022/12/02 04:48:20;;;;;;;;;;;;;;;-144.99;100.00;52680.47;5027405;28;20397;-71
2022/12/02 04:50:47;;;;;;;;;;;;;;;-144.99;100.00;52656.00;5028750;28;19962;-72
2022/12/02 04:53:13;;;;;;;;;;;;;;;-144.99;100.00;52660.09;5035235;28;20431;-73
2022/12/02 04:55:42;;;;;;;;;;;;;;;-144.99;100.00;52704.94;5053987;28;19940;-73
2022/12/02 04:58:10;;;;;;;;;;;;;;;-144.99;100.00;52680.47;5053200;28;19948;-72
2022/12/02 05:00:36;;;;;;;;;;;;;;;-144.99;100.00;52660.09;5038085;28;19960;-71
2022/12/02 05:03:03;;;;;;;;;;;;;;;-144.99;100.00;52668.22;5027447;28;20010;-71
2022/12/02 05:08:05;;;;;;;;;;;;;;;-144.99;100.00;52651.94;5055451;28;19951;-71
2022/12/02 05:10:31;;;;;;;;;;;;;;;-144.99;100.00;52674.34;5064369;28;20289;-73
2022/12/02 05:12:58;;;;;;;;;;;;;;;-144.99;100.00;52641.72;5061107;28;19943;-72
2022/12/02 05:15:26;;;;;;;;;;;;;;;-144.99;100.00;52647.84;5053827;28;19933;-72
2022/12/02 05:17:52;;;;;;;;;;;;;;;-144.99;100.00;52676.38;5033987;28;19965;-73
2022/12/02 05:20:19;;;;;;;;;;;;;;;-144.99;100.00;52700.84;5043182;28;19966;-73
2022/12/02 05:22:45;;;;;;;;;;;;;;;-144.99;100.00;52631.53;5038629;28;19940;-73
2022/12/02 05:25:12;;;;;;;;;;;;;;;-144.99;100.00;52670.28;5033862;28;19999;-72
2022/12/02 05:27:38;;;;;;;;;;;;;;;-144.99;100.00;52649.88;5032733;28;19963;-72
2022/12/02 05:30:06;;;;;;;;;;;;;;;-144.99;100.00;52664.16;5048557;28;19955;-72
2022/12/02 05:32:34;;;;;;;;;;;;;;;-144.99;100.00;52668.22;5045589;28;20414;-73
2022/12/02 05:35:01;;;;;;;;;;;;;;;-144.99;100.00;52676.38;5033759;28;19945;-73
2022/12/02 05:37:27;;;;;;;;;;;;;;;-144.99;100.00;52684.53;5032899;28;19965;-72
2022/12/02 05:39:54;;;;;;;;;;;;;;;-144.99;100.00;52680.47;5037373;28;19937;-73
2022/12/02 05:42:20;;;;;;;;;;;;;;;-144.99;100.00;52668.22;5062401;28;19939;-74
2022/12/02 05:44:47;;;;;;;;;;;;;;;-144.99;100.00;52666.19;5063662;28;19999;-73
2022/12/02 05:47:14;;;;;;;;;;;;;;;-144.99;100.00;52639.69;5041944;28;20010;-72
2022/12/02 05:49:42;;;;;;;;;;;;;;;-144.99;100.00;52645.81;5032817;28;19951;-71
2022/12/02 05:52:18;;;;;;;;;;;;;;;-144.99;100.00;52680.47;5043048;28;19947;-73
2022/12/02 05:54:44;;;;;;;;;;;;;;;-144.99;100.00;52680.47;5051015;28;19939;-76
2022/12/02 05:57:12;;;;;;;;;;;;;;;-144.99;100.00;52643.78;5042055;28;19959;-77
2022/12/02 05:59:38;;;;;;;;;;;;;;;-144.99;100.00;52672.31;5034146;28;19971;-77
2022/12/02 06:02:12;;;;;;;;;;;;;;;-144.99;100.00;52674.34;5050116;28;19978;-76
2022/12/02 06:04:39;;;;;;;;;;;;;;;-144.99;100.00;52684.53;5034959;28;19952;-75
2022/12/02 06:07:23;;;;;;;;;;;;;;;-144.99;100.00;52651.94;4889460;28;9999936;-72
2022/12/02 06:09:50;;;;;;;;;;;;;;;-144.99;100.00;52631.53;5042342;28;20051;-72
2022/12/02 06:12:17;;;;;;;;;;;;;;;-144.99;100.00;52643.78;5044396;28;19939;-72
2022/12/02 06:14:47;;;;;;;;;;;;;;;-144.99;100.00;52713.09;5045998;28;20050;-72
2022/12/02 06:17:14;;;;;;;;;;;;;;;-144.99;100.00;52692.69;5051883;28;19964;-72
2022/12/02 06:19:44;;;;;;;;;;;;;;;-144.99;100.00;52713.09;5046982;28;19970;-72
2022/12/02 06:22:14;;;;;;;;;;;;;;;-144.99;100.00;52651.94;5044160;28;20006;-73
2022/12/02 06:24:42;;;;;;;;;;;;;;;-144.99;100.00;52696.78;5038245;28;19965;-73
2022/12/02 06:27:12;;;;;;;;;;;;;;;-144.99;100.00;52647.84;5031141;28;19974;-73
2022/12/02 06:29:44;;;;;;;;;;;;;;;-144.99;100.00;52664.16;5042986;28;20202;-72
2022/12/02 06:32:14;;;;;;;;;;;;;;;-144.99;100.00;52686.59;5042016;28;19981;-74
2022/12/02 06:34:41;;;;;;;;;;;;;;;-144.99;100.00;52633.59;5036490;28;19944;-73
2022/12/02 06:37:15;;;;;;;;;;;;;;;-144.99;100.00;52664.16;5028850;28;19994;-72
2022/12/02 06:39:45;;;;;;;;;;;;;;;-144.99;100.00;52698.81;5035313;28;19965;-73
2022/12/02 06:42:15;;;;;;;;;;;;;;;-144.99;100.00;52651.94;5042768;28;19947;-73
2022/12/02 06:47:45;;;;;;;;;;;;;;;-144.99;100.00;52672.31;5044906;28;19996;-73
2022/12/02 06:50:20;;;;;;;;;;;;;;;-144.99;100.00;52696.78;5033761;28;19988;-72
2022/12/02 06:52:47;;;;;;;;;;;;;;;-144.99;100.00;52651.94;5046788;28;19937;-74
2022/12/02 06:55:25;;;;;;;;;;;;;;;-144.99;100.00;52668.22;5032419;28;19999;-73
2022/12/02 06:57:51;;;;;;;;;;;;;;;-144.99;100.00;52680.47;5042712;28;20012;-73
2022/12/02 07:00:18;;;;;;;;;;;;;;;-144.99;100.00;52649.88;5041097;28;19991;-72
2022/12/02 07:02:45;;;;;;;;;;;;;;;-144.99;100.00;52658.03;5041177;28;20411;-71
2022/12/02 07:05:18;;;;;;;;;;;;;;;-144.99;100.00;52627.47;5028711;28;19949;-72
2022/12/02 07:07:44;;;;;;;;;;;;;;;-144.99;100.00;52680.47;5031931;28;20446;-72
2022/12/02 07:10:19;;;;;;;;;;;;;;;-144.99;100.00;52694.72;5043500;28;20041;-73
2022/12/02 07:12:46;;;;;;;;;;;;;;;-144.99;100.00;52623.38;5036138;28;19949;-73
2022/12/02 07:15:19;;;;;;;;;;;;;;;-144.99;100.00;52666.19;5030612;28;20535;-73
2022/12/02 07:17:46;;;;;;;;;;;;;;;-144.99;100.00;52668.22;5041760;28;20016;-73
2022/12/02 07:20:21;;;;;;;;;;;;;;;-144.99;100.00;52674.34;5033995;28;19925;-74
2022/12/02 07:22:49;;;;;;;;;;;;;;;-144.99;100.00;52692.69;5028623;28;19953;-80
2022/12/02 07:25:28;;;;;;;;;;;;;;;-144.99;100.00;52688.63;5029640;28;19947;-76
2022/12/02 07:27:56;;;;;;;;;;;;;;;-144.99;100.00;52702.88;5032001;28;19936;-75
2022/12/02 07:30:24;;;;;;;;;;;;;;;-144.99;100.00;52684.53;5048249;28;19986;-73
2022/12/02 07:32:51;;;;;;;;;;;;;;;-144.99;100.00;52656.00;5037604;28;19951;-73
2022/12/02 07:35:17;;;;;;;;;;;;;;;-144.99;100.00;52660.09;5028425;28;19945;-75
2022/12/02 07:37:44;;;;;;;;;;;;;;;-144.99;100.00;52692.69;5033962;28;19929;-74
2022/12/02 07:40:12;;;;;;;;;;;;;;;-144.99;100.00;52651.94;5034244;28;19949;-73
2022/12/02 07:42:39;;;;;;;;;;;;;;;-144.99;100.00;52696.78;5040208;28;19967;-72
2022/12/02 07:45:07;;;;;;;;;;;;;;;-144.99;100.00;52711.03;5051538;28;19940;-73
2022/12/02 07:47:34;;;;;;;;;;;;;;;-144.99;100.00;52664.16;5056563;28;19928;-72
2022/12/02 07:50:00;;;;;;;;;;;;;;;-144.99;100.00;52688.63;5045274;28;19998;-77
2022/12/02 07:52:27;;;;;;;;;;;;;;;-144.99;100.00;52684.53;4691020;28;9999575;-78
2022/12/02 07:54:54;;;;;;;;;;;;;;;-144.99;100.00;52684.53;5043503;28;20392;-74
2022/12/02 07:57:21;;;;;;;;;;;;;;;-144.99;100.00;52668.22;5035479;28;19967;-74
2022/12/02 07:59:47;;;;;;;;;;;;;;;-144.99;100.00;52668.22;5039946;28;20335;-73
2022/12/02 08:02:15;;;;;;;;;;;;;;;-144.99;100.00;52668.22;5035199;28;19940;-73
2022/12/02 08:04:42;;;;;;;;;;;;;;;-144.99;100.00;52684.53;5042145;28;19946;-73
2022/12/02 08:07:09;;;;;;;;;;;;;;;-144.99;100.00;52692.69;5055053;28;20060;-73
2022/12/02 08:09:38;;;;;;;;;;;;;;;-144.99;100.00;52684.53;5053560;28;19975;-73
2022/12/02 08:12:05;;;;;;;;;;;;;;;-144.99;100.00;52660.09;5044316;28;20094;-73
2022/12/02 08:14:32;;;;;;;;;;;;;;;-144.99;100.00;52692.69;5038221;28;20041;-73
2022/12/02 08:16:58;;;;;;;;;;;;;;;-144.99;100.00;52656.00;5046989;28;19965;-73
2022/12/02 08:19:26;;;;;;;;;;;;;;;-144.99;100.00;52668.22;5051859;28;20247;-74
2022/12/02 08:21:53;;;;;;;;;;;;;;;-144.99;100.00;52627.47;5046167;28;19996;-72
2022/12/02 08:24:22;;;;;;;;;;;;;;;-144.99;100.00;52647.84;5039988;28;20615;-73
2022/12/02 08:26:48;;;;;;;;;;;;;;;-144.99;100.00;52682.50;5052273;28;20031;-73
2022/12/02 08:29:15;;;;;;;;;;;;;;;-144.99;100.00;52656.00;5048922;28;19997;-73
2022/12/02 08:31:41;;;;;;;;;;;;;;;-144.99;100.00;52635.63;5064189;28;20547;-73
2022/12/02 08:34:08;;;;;;;;;;;;;;;-144.99;100.00;52684.53;5047171;28;19972;-72
2022/12/02 08:36:36;;;;;;;;;;;;;;;-144.99;100.00;52651.94;5045329;28;19964;-74
2022/12/02 08:39:04;;;;;;;;;;;;;;;-144.99;100.00;52702.88;5051351;28;19935;-71
2022/12/02 08:41:31;;;;;;;;;;;;;;;-144.99;100.00;52629.50;5050642;28;19959;-71
2022/12/02 08:43:58;;;;;;;;;;;;;;;-144.99;100.00;52688.63;5042909;28;20427;-73
2022/12/02 08:46:26;;;;;;;;;;;;;;;-144.99;100.00;52647.84;5045233;28;19955;-73
2022/12/02 08:48:53;;;;;;;;;;;;;;;-144.99;100.00;52688.63;5055210;28;19944;-72
2022/12/02 08:51:19;;;;;;;;;;;;;;;-144.99;100.00;52664.16;5050191;28;20006;-74
2022/12/02 08:53:48;;;;;;;;;;;;;;;-144.99;100.00;52656.00;5048171;28;20358;-72
2022/12/02 08:56:14;;;;;;;;;;;;;;;-144.99;100.00;52653.97;5046155;28;20050;-72
2022/12/02 08:58:41;;;;;;;;;;;;;;;-144.99;100.00;52668.22;5048152;28;19947;-75
2022/12/02 09:01:07;;;;;;;;;;;;;;;-144.99;100.00;52680.47;5040791;28;19929;-73
2022/12/02 09:03:34;;;;;;;;;;;;;;;-144.99;100.00;52619.31;5034638;28;20001;-71
2022/12/02 09:06:01;;;;;;;;;;;;;;;-144.99;100.00;52643.78;5047953;28;19967;-71
2022/12/02 09:08:27;;;;;;;;;;;;;;;-144.99;100.00;52651.94;5047196;28;20464;-73
2022/12/02 09:10:55;;;;;;;;;;;;;;;-144.99;100.00;52647.84;5048939;28;20072;-74
2022/12/02 09:13:22;;;;;;;;;;;;;;;-144.99;100.00;52680.47;5033046;28;20395;-74
2022/12/02 09:15:48;;;;;;;;;;;;;;;-144.99;100.00;52651.94;5046003;28;19955;-72
2022/12/02 09:18:15;;;;;;;;;;;;;;;-144.99;100.00;52668.22;5052916;28;19932;-74
2022/12/02 09:20:42;;;;;;;;;;;;;;;-144.99;100.00;52651.94;5029031;28;19991;-71
2022/12/02 09:23:08;;;;;;;;;;;;;;;-144.99;100.00;52668.22;5029216;28;20386;-71
2022/12/02 09:25:38;;;;;;;;;;;;;;;-144.99;100.00;52619.31;5035578;28;19933;-72
2022/12/02 09:28:06;;;;;;;;;;;;;;;-144.99;100.00;52653.97;5043338;28;19949;-72
2022/12/02 09:30:33;;;;;;;;;;;;;;;-144.99;100.00;52664.16;5048762;28;19968;-73
2022/12/02 09:32:59;;;;;;;;;;;;;;;-144.99;100.00;52639.69;5037464;28;19945;-72
2022/12/02 09:35:26;;;;;;;;;;;;;;;-144.99;100.00;52668.22;5035673;28;19952;-73
2022/12/02 09:37:52;;;;;;;;;;;;;;;-144.99;100.00;52627.47;5043532;28;19936;-73
2022/12/02 09:40:19;;;;;;;;;;;;;;;-144.99;100.00;52635.63;5030249;28;19991;-73
2022/12/02 09:42:46;;;;;;;;;;;;;;;-144.99;100.00;52631.53;5036625;28;19945;-74
2022/12/02 09:45:14;;;;;;;;;;;;;;;-144.99;100.00;52656.00;5043203;28;20693;-73
2022/12/02 09:47:40;;;;;;;;;;;;;;;-144.99;100.00;52635.63;5041640;28;19962;-74
2022/12/02 09:50:10;;;;;;;;;;;;;;;-144.99;100.00;52656.00;5035162;28;20370;-74
2022/12/02 09:52:37;;;;;;;;;;;;;;;-144.99;100.00;52637.66;5047176;28;19944;-75
2022/12/02 09:55:03;;;;;;;;;;;;;;;-144.99;100.00;52615.25;5030998;28;20501;-73
2022/12/02 09:57:31;;;;;;;;;;;;;;;-144.99;100.00;52637.66;5043502;28;20370;-74
2022/12/02 09:59:58;;;;;;;;;;;;;;;-144.99;100.00;52611.16;5036684;28;20029;-72
2022/12/02 10:02:28;;;;;;;;;;;;;;;-144.99;100.00;52651.94;5028586;28;20362;-72
2022/12/02 10:04:56;;;;;;;;;;;;;;;-144.99;100.00;52590.78;5028662;28;20313;-73
2022/12/02 10:07:22;;;;;;;;;;;;;;;-144.99;100.00;52633.59;5037016;28;19994;-73
2022/12/02 10:09:49;;;;;;;;;;;;;;;-144.99;100.00;52627.47;5036400;28;20028;-73
2022/12/02 10:12:15;;;;;;;;;;;;;;;-144.99;100.00;52635.63;5029915;28;19959;-73
2022/12/02 10:14:46;;;;;;;;;;;;;;;-144.99;100.00;52594.84;5047343;28;19963;-73
2022/12/02 10:17:16;;;;;;;;;;;;;;;-144.99;100.00;52635.63;5038390;28;19957;-74
2022/12/02 10:19:44;;;;;;;;;;;;;;;-144.99;100.00;52660.09;5042349;28;19942;-74
2022/12/02 10:22:14;;;;;;;;;;;;;;;-144.99;100.00;52678.44;5061535;28;19949;-75
2022/12/02 10:24:40;;;;;;;;;;;;;;;-144.99;100.00;52656.00;5050774;28;19924;-76
2022/12/02 10:27:07;;;;;;;;;;;;;;;-144.99;100.00;52656.00;5051999;28;19935;-73
2022/12/02 10:29:34;;;;;;;;;;;;;;;-144.99;100.00;52635.63;5059941;28;19941;-74
2022/12/02 10:32:01;;;;;;;;;;;;;;;-144.99;100.00;52664.16;5056913;28;20244;-75
2022/12/02 10:34:29;;;;;;;;;;;;;;;-144.99;100.00;52672.31;5044084;28;20155;-73
2022/12/02 10:37:14;;;;;;;;;;;;;;;-144.99;100.00;52643.78;5041490;28;19967;-73
2022/12/02 10:39:41;;;;;;;;;;;;;;;-144.99;100.00;52649.88;5047028;28;19941;-73
2022/12/02 10:42:15;;;;;;;;;;;;;;;-144.99;100.00;52653.97;5034410;28;19979;-74
2022/12/02 10:44:43;;;;;;;;;;;;;;;-144.99;100.00;52653.97;5034717;28;20167;-75
2022/12/02 10:47:11;;;;;;;;;;;;;;;-144.99;100.00;52600.97;5040745;28;19955;-73
2022/12/02 10:49:37;;;;;;;;;;;;;;;-144.99;100.00;52643.78;5037300;28;20419;-72
2022/12/02 10:52:08;;;;;;;;;;;;;;;-144.99;100.00;52656.00;5044672;28;20040;-74
2022/12/02 10:54:34;;;;;;;;;;;;;;;-144.99;100.00;52668.22;5032591;28;19975;-73
2022/12/02 10:57:02;;;;;;;;;;;;;;;-144.99;100.00;52666.19;5041977;28;20308;-73
2022/12/02 10:59:31;;;;;;;;;;;;;;;-144.99;100.00;52656.00;5031331;28;19956;-74
2022/12/02 11:01:58;;;;;;;;;;;;;;;-144.99;100.00;52643.78;5028089;28;20404;-74
2022/12/02 11:04:25;;;;;;;;;;;;;;;-144.99;100.00;52656.00;5028670;28;20003;-74
2022/12/02 11:06:54;;;;;;;;;;;;;;;-144.99;100.00;52647.84;5037507;28;19963;-73
2022/12/02 11:09:23;;;;;;;;;;;;;;;-144.99;100.00;52625.44;5037137;28;19944;-72
2022/12/02 11:11:50;;;;;;;;;;;;;;;-144.99;100.00;52676.38;5039494;28;20175;-74
2022/12/02 11:14:32;;;;;;;;;;;;;;;-144.99;100.00;52680.47;5028922;28;19951;-73
2022/12/02 11:17:06;;;;;;;;;;;;;;;-144.99;100.00;52651.94;5033464;28;19998;-74
2022/12/02 11:19:45;;;;;;;;;;;;;;;-144.99;100.00;52660.09;5030353;28;20051;-73
2022/12/02 11:22:30;;;;;;;;;;;;;;;-144.99;100.00;52619.31;5037825;28;19935;-74
2022/12/02 11:24:58;;;;;;;;;;;;;;;-144.99;100.00;52627.47;5036803;28;20000;-73
2022/12/02 11:27:24;;;;;;;;;;;;;;;-144.99;100.00;52660.09;5031337;28;19955;-74
2022/12/02 11:30:06;;;;;;;;;;;;;;;-144.99;100.00;52643.78;5038766;28;19939;-74
2022/12/02 11:32:49;;;;;;;;;;;;;;;-144.99;100.00;52649.88;5038009;28;20178;-78
2022/12/02 11:35:16;;;;;;;;;;;;;;;-144.99;100.00;52633.59;5045194;28;19979;-77
2022/12/02 11:37:44;;;;;;;;;;;;;;;-144.99;100.00;52625.44;5046195;28;20430;-73
2022/12/02 11:40:34;;;;;;;;;;;;;;;-144.99;100.00;52656.00;5033966;28;19961;-73
2022/12/02 11:43:15;;;;;;;;;;;;;;;-144.99;100.00;52639.69;5032386;28;19939;-72
2022/12/02 11:45:59;;;;;;;;;;;;;;;-144.99;100.00;52658.03;5043930;28;20358;-72
2022/12/02 11:48:27;;;;;;;;;;;;;;;-144.99;100.00;52662.13;5033970;28;19947;-73
2022/12/02 11:50:54;;;;;;;;;;;;;;;-144.99;100.00;52631.53;5039502;28;19948;-73
2022/12/02 11:53:22;;;;;;;;;;;;;;;-144.99;100.00;52660.09;5039829;28;20490;-74
2022/12/02 11:55:50;;;;;;;;;;;;;;;-144.99;100.00;52668.22;5038049;28;20468;-71
2022/12/02 11:58:19;;;;;;;;;;;;;;;-144.99;100.00;52651.94;5042973;28;19987;-73
2022/12/02 12:01:00;;;;;;;;;;;;;;;-144.99;100.00;52619.31;5031438;28;20030;-74
2022/12/02 12:03:28;;;;;;;;;;;;;;;-144.99;100.00;52643.78;5031988;28;19951;-73
2022/12/02 12:06:08;;;;;;;;;;;;;;;-144.99;100.00;52664.16;5030832;28;20231;-73
2022/12/02 12:08:35;;;;;;;;;;;;;;;-144.99;100.00;52651.94;5038671;28;20458;-73
2022/12/02 12:11:15;;;;;;;;;;;;;;;-144.99;100.00;52656.00;5041958;28;19989;-73
2022/12/02 12:13:57;;;;;;;;;;;;;;;-144.99;100.00;52684.53;5035415;28;20386;-74
2022/12/02 12:16:23;;;;;;;;;;;;;;;-144.99;100.00;52664.16;5039546;28;19955;-72
2022/12/02 12:18:52;;;;;;;;;;;;;;;-144.99;100.00;52643.78;5045792;28;19960;-73
2022/12/02 12:21:34;;;;;;;;;;;;;;;-144.99;100.00;52635.63;5043977;28;19947;-75
2022/12/02 12:24:15;;;;;;;;;;;;;;;-144.99;100.00;52647.84;5030698;28;20762;-72
2022/12/02 12:26:42;;;;;;;;;;;;;;;-144.99;100.00;52660.09;5039155;28;20423;-74
2022/12/02 12:29:09;;;;;;;;;;;;;;;-144.99;100.00;52615.25;5036250;28;19953;-75
2022/12/02 12:31:35;;;;;;;;;;;;;;;-144.99;100.00;52639.69;5036052;28;19983;-72
2022/12/02 12:34:04;;;;;;;;;;;;;;;-144.99;100.00;52623.38;5049722;28;19943;-72